Terminal Aerodrome Forecast
Issued by NWS

Home | Current Version | Previous Version | Text Only | Print | Product List | Glossary On
Versions: 1 2 3 4 5 6 7 8 9 10 11 12 13 14 15 16 17 18 19 20 21
000
FTUS43 KDDC 250712 AAA
TAFHYS
TAF AMD
KHYS 250712Z 2507/2606 07008KT P6SM VCSH FEW080 SCT090 OVC110
     FM251500 05009KT P6SM OVC070
     FM252100 08010KT P6SM VCTS OVC060CB
     FM260300 14005KT P6SM OVC060=

USA.gov is the U.S. government's official web portal to all federal, state and local government web resources and services.